sensor_id;sensor_type;location;lat;lon;timestamp;pressure;altitude;pressure_sealevel;temperature;humidity
55486;BME280;71262;-25.924;28.194;2023-08-07T00:02:11;85994.19;;;18.65;32.60
55486;BME280;71262;-25.924;28.194;2023-08-07T00:04:36;85992.69;;;18.70;32.59
55486;BME280;71262;-25.924;28.194;2023-08-07T00:07:02;85990.03;;;18.80;32.45
55486;BME280;71262;-25.924;28.194;2023-08-07T00:09:27;85987.41;;;18.67;32.54
55486;BME280;71262;-25.924;28.194;2023-08-07T00:11:52;85986.96;;;18.85;32.66
55486;BME280;71262;-25.924;28.194;2023-08-07T00:14:18;85989.34;;;18.56;32.76
55486;BME280;71262;-25.924;28.194;2023-08-07T00:16:42;85987.68;;;18.58;32.76
55486;BME280;71262;-25.924;28.194;2023-08-07T00:19:08;85986.70;;;18.61;32.75
55486;BME280;71262;-25.924;28.194;2023-08-07T00:21:34;85985.98;;;18.61;32.65
55486;BME280;71262;-25.924;28.194;2023-08-07T00:24:00;85985.28;;;18.57;32.70
55486;BME280;71262;-25.924;28.194;2023-08-07T00:26:25;85984.50;;;18.56;32.81
55486;BME280;71262;-25.924;28.194;2023-08-07T00:28:50;85981.86;;;18.81;32.85
55486;BME280;71262;-25.924;28.194;2023-08-07T00:31:15;85985.38;;;18.97;32.89
55486;BME280;71262;-25.924;28.194;2023-08-07T00:33:41;85985.86;;;18.73;32.94
55486;BME280;71262;-25.924;28.194;2023-08-07T00:36:08;85988.25;;;18.75;32.91
55486;BME280;71262;-25.924;28.194;2023-08-07T00:38:31;85989.31;;;18.55;32.91
55486;BME280;71262;-25.924;28.194;2023-08-07T00:40:57;85989.27;;;18.58;32.90
55486;BME280;71262;-25.924;28.194;2023-08-07T00:43:22;85990.06;;;18.78;33.04
55486;BME280;71262;-25.924;28.194;2023-08-07T00:45:48;85989.66;;;18.66;33.00
55486;BME280;71262;-25.924;28.194;2023-08-07T00:48:14;85989.01;;;18.71;33.03
55486;BME280;71262;-25.924;28.194;2023-08-07T00:50:39;85988.74;;;18.45;33.13
55486;BME280;71262;-25.924;28.194;2023-08-07T00:53:05;85987.32;;;18.69;33.14
55486;BME280;71262;-25.924;28.194;2023-08-07T00:55:33;85985.35;;;18.57;33.04
55486;BME280;71262;-25.924;28.194;2023-08-07T00:57:55;85984.77;;;18.68;32.87
55486;BME280;71262;-25.924;28.194;2023-08-07T01:00:21;85984.17;;;18.55;32.95
55486;BME280;71262;-25.924;28.194;2023-08-07T01:02:46;85984.18;;;18.79;33.00
55486;BME280;71262;-25.924;28.194;2023-08-07T01:05:13;85984.18;;;18.58;32.86
55486;BME280;71262;-25.924;28.194;2023-08-07T01:07:36;85983.11;;;18.51;32.92
55486;BME280;71262;-25.924;28.194;2023-08-07T01:10:02;85982.91;;;18.40;32.95
55486;BME280;71262;-25.924;28.194;2023-08-07T01:12:31;85980.89;;;18.68;32.84
55486;BME280;71262;-25.924;28.194;2023-08-07T01:14:58;85981.45;;;18.39;32.80
55486;BME280;71262;-25.924;28.194;2023-08-07T01:17:21;85985.74;;;18.38;32.85
55486;BME280;71262;-25.924;28.194;2023-08-07T01:19:45;85983.35;;;18.35;32.82
55486;BME280;71262;-25.924;28.194;2023-08-07T01:22:13;85981.61;;;18.61;32.81
55486;BME280;71262;-25.924;28.194;2023-08-07T01:24:36;85982.06;;;18.34;32.76
55486;BME280;71262;-25.924;28.194;2023-08-07T01:27:10;85983.15;;;18.35;32.73
55486;BME280;71262;-25.924;28.194;2023-08-07T01:29:32;85979.51;;;18.53;32.88
55486;BME280;71262;-25.924;28.194;2023-08-07T01:31:54;85985.02;;;18.64;32.77
55486;BME280;71262;-25.924;28.194;2023-08-07T01:34:19;85978.89;;;18.43;32.54
55486;BME280;71262;-25.924;28.194;2023-08-07T01:36:43;85978.67;;;18.33;32.67
55486;BME280;71262;-25.924;28.194;2023-08-07T01:39:08;85976.75;;;18.28;32.67
55486;BME280;71262;-25.924;28.194;2023-08-07T01:41:36;85976.80;;;18.55;32.76
55486;BME280;71262;-25.924;28.194;2023-08-07T01:44:00;85975.06;;;18.18;32.84
55486;BME280;71262;-25.924;28.194;2023-08-07T01:46:27;85974.71;;;18.42;32.90
55486;BME280;71262;-25.924;28.194;2023-08-07T01:48:51;85973.58;;;18.47;32.88
55486;BME280;71262;-25.924;28.194;2023-08-07T01:51:18;85975.40;;;18.18;32.88
55486;BME280;71262;-25.924;28.194;2023-08-07T01:53:44;85979.08;;;18.21;32.86
55486;BME280;71262;-25.924;28.194;2023-08-07T01:56:07;85980.84;;;18.48;32.87
55486;BME280;71262;-25.924;28.194;2023-08-07T01:58:32;85978.48;;;18.58;32.95
55486;BME280;71262;-25.924;28.194;2023-08-07T02:00:57;85978.64;;;18.33;32.94
55486;BME280;71262;-25.924;28.194;2023-08-07T02:03:22;85982.20;;;18.04;32.97
55486;BME280;71262;-25.924;28.194;2023-08-07T02:05:48;85981.30;;;17.60;32.92
55486;BME280;71262;-25.924;28.194;2023-08-07T02:08:18;85981.49;;;18.38;32.80
55486;BME280;71262;-25.924;28.194;2023-08-07T02:10:39;85981.04;;;18.59;32.82
55486;BME280;71262;-25.924;28.194;2023-08-07T02:13:05;85982.35;;;18.30;32.88
55486;BME280;71262;-25.924;28.194;2023-08-07T02:15:29;85986.55;;;18.57;32.76
55486;BME280;71262;-25.924;28.194;2023-08-07T02:17:56;85983.73;;;18.50;32.85
55486;BME280;71262;-25.924;28.194;2023-08-07T02:20:20;85982.63;;;18.63;32.64
55486;BME280;71262;-25.924;28.194;2023-08-07T02:22:46;85984.10;;;18.41;32.61
55486;BME280;71262;-25.924;28.194;2023-08-07T02:25:14;85980.67;;;18.27;32.76
55486;BME280;71262;-25.924;28.194;2023-08-07T02:27:37;85979.33;;;18.41;32.87
55486;BME280;71262;-25.924;28.194;2023-08-07T02:30:01;85981.38;;;17.97;32.83
55486;BME280;71262;-25.924;28.194;2023-08-07T02:32:28;85980.26;;;18.24;32.72
55486;BME280;71262;-25.924;28.194;2023-08-07T02:34:54;85985.18;;;18.16;32.82
55486;BME280;71262;-25.924;28.194;2023-08-07T02:37:19;85985.18;;;18.34;32.83
55486;BME280;71262;-25.924;28.194;2023-08-07T02:39:44;85983.64;;;18.13;32.75
55486;BME280;71262;-25.924;28.194;2023-08-07T02:42:08;85985.07;;;17.86;32.81
55486;BME280;71262;-25.924;28.194;2023-08-07T02:44:34;85986.04;;;18.45;32.66
55486;BME280;71262;-25.924;28.194;2023-08-07T02:46:59;85986.11;;;18.11;32.77
55486;BME280;71262;-25.924;28.194;2023-08-07T02:49:25;85988.06;;;18.10;32.78
55486;BME280;71262;-25.924;28.194;2023-08-07T02:51:51;85988.71;;;18.12;32.72
55486;BME280;71262;-25.924;28.194;2023-08-07T02:54:16;85990.12;;;18.32;32.75
55486;BME280;71262;-25.924;28.194;2023-08-07T02:56:41;85989.26;;;18.37;32.65
55486;BME280;71262;-25.924;28.194;2023-08-07T02:59:07;85989.84;;;17.90;32.68
55486;BME280;71262;-25.924;28.194;2023-08-07T03:01:33;85993.83;;;18.41;32.61
55486;BME280;71262;-25.924;28.194;2023-08-07T03:03:57;85990.22;;;18.09;32.66
55486;BME280;71262;-25.924;28.194;2023-08-07T03:06:22;85992.61;;;18.05;32.69
55486;BME280;71262;-25.924;28.194;2023-08-07T03:08:48;85994.43;;;18.04;32.64
55486;BME280;71262;-25.924;28.194;2023-08-07T03:11:14;85993.19;;;17.99;32.73
55486;BME280;71262;-25.924;28.194;2023-08-07T03:13:39;85994.60;;;18.02;32.68
55486;BME280;71262;-25.924;28.194;2023-08-07T03:16:05;85994.64;;;18.22;32.64
55486;BME280;71262;-25.924;28.194;2023-08-07T03:18:31;85994.48;;;18.01;32.63
55486;BME280;71262;-25.924;28.194;2023-08-07T03:20:55;85997.68;;;17.93;32.69
55486;BME280;71262;-25.924;28.194;2023-08-07T03:23:21;85998.68;;;18.16;32.63
55486;BME280;71262;-25.924;28.194;2023-08-07T03:25:46;85995.88;;;18.19;32.61
55486;BME280;71262;-25.924;28.194;2023-08-07T03:28:13;86000.63;;;17.70;32.53
55486;BME280;71262;-25.924;28.194;2023-08-07T03:30:37;86002.27;;;17.89;32.57
55486;BME280;71262;-25.924;28.194;2023-08-07T03:33:02;86004.72;;;18.01;32.66
55486;BME280;71262;-25.924;28.194;2023-08-07T03:35:28;86004.93;;;17.80;32.63
55486;BME280;71262;-25.924;28.194;2023-08-07T03:37:53;86009.35;;;18.05;32.54
55486;BME280;71262;-25.924;28.194;2023-08-07T03:40:18;86009.71;;;17.80;32.63
55486;BME280;71262;-25.924;28.194;2023-08-07T03:42:44;86014.61;;;18.09;32.48
55486;BME280;71262;-25.924;28.194;2023-08-07T03:45:10;86017.05;;;18.03;32.61
55486;BME280;71262;-25.924;28.194;2023-08-07T03:47:34;86015.83;;;17.98;32.69
55486;BME280;71262;-25.924;28.194;2023-08-07T03:50:00;86014.24;;;17.98;32.76
55486;BME280;71262;-25.924;28.194;2023-08-07T03:52:25;86015.07;;;17.97;32.79
55486;BME280;71262;-25.924;28.194;2023-08-07T03:54:50;86016.79;;;17.93;32.77
55486;BME280;71262;-25.924;28.194;2023-08-07T03:57:15;86017.33;;;17.97;32.80
55486;BME280;71262;-25.924;28.194;2023-08-07T03:59:41;86016.68;;;17.94;32.80
55486;BME280;71262;-25.924;28.194;2023-08-07T04:02:06;86020.76;;;17.70;32.79
55486;BME280;71262;-25.924;28.194;2023-08-07T04:04:31;86020.54;;;17.72;32.68
55486;BME280;71262;-25.924;28.194;2023-08-07T04:06:56;86020.49;;;17.91;32.71
55486;BME280;71262;-25.924;28.194;2023-08-07T04:09:22;86023.20;;;17.90;32.66
55486;BME280;71262;-25.924;28.194;2023-08-07T04:11:47;86023.97;;;18.01;32.51
55486;BME280;71262;-25.924;28.194;2023-08-07T04:14:12;86023.34;;;18.00;32.49
55486;BME280;71262;-25.924;28.194;2023-08-07T04:16:37;86025.66;;;17.96;32.48
55486;BME280;71262;-25.924;28.194;2023-08-07T04:19:03;86027.17;;;17.92;32.52
55486;BME280;71262;-25.924;28.194;2023-08-07T04:21:28;86026.84;;;18.02;32.34
55486;BME280;71262;-25.924;28.194;2023-08-07T04:23:54;86028.74;;;18.04;32.29
55486;BME280;71262;-25.924;28.194;2023-08-07T04:26:19;86032.57;;;17.94;32.37
55486;BME280;71262;-25.924;28.194;2023-08-07T04:28:44;86032.52;;;17.90;32.39
55486;BME280;71262;-25.924;28.194;2023-08-07T04:31:10;86033.64;;;17.91;32.28
55486;BME280;71262;-25.924;28.194;2023-08-07T04:33:35;86035.31;;;17.65;32.33
55486;BME280;71262;-25.924;28.194;2023-08-07T04:36:00;86035.98;;;17.96;32.16
55486;BME280;71262;-25.924;28.194;2023-08-07T04:38:26;86038.65;;;17.75;32.13
55486;BME280;71262;-25.924;28.194;2023-08-07T04:40:52;86042.40;;;17.96;32.11
55486;BME280;71262;-25.924;28.194;2023-08-07T04:43:19;86045.21;;;17.36;32.19
55486;BME280;71262;-25.924;28.194;2023-08-07T04:45:44;86047.57;;;17.73;32.27
55486;BME280;71262;-25.924;28.194;2023-08-07T04:48:09;86049.05;;;17.73;32.32
55486;BME280;71262;-25.924;28.194;2023-08-07T04:50:33;86052.32;;;17.76;32.24
55486;BME280;71262;-25.924;28.194;2023-08-07T04:52:59;86057.83;;;17.76;32.27
55486;BME280;71262;-25.924;28.194;2023-08-07T04:55:25;86059.50;;;17.72;32.28
55486;BME280;71262;-25.924;28.194;2023-08-07T04:57:50;86061.29;;;17.73;32.33
55486;BME280;71262;-25.924;28.194;2023-08-07T05:00:17;86062.01;;;17.47;32.42
55486;BME280;71262;-25.924;28.194;2023-08-07T05:02:41;86063.49;;;17.69;32.52
55486;BME280;71262;-25.924;28.194;2023-08-07T05:05:08;86064.50;;;17.50;32.57
55486;BME280;71262;-25.924;28.194;2023-08-07T05:07:34;86067.43;;;17.92;32.47
55486;BME280;71262;-25.924;28.194;2023-08-07T05:09:58;86066.00;;;17.96;32.38
55486;BME280;71262;-25.924;28.194;2023-08-07T05:12:23;86066.55;;;17.97;32.41
55486;BME280;71262;-25.924;28.194;2023-08-07T05:14:49;86066.61;;;17.88;32.33
55486;BME280;71262;-25.924;28.194;2023-08-07T05:17:13;86069.97;;;18.11;32.34
55486;BME280;71262;-25.924;28.194;2023-08-07T05:19:39;86071.09;;;18.22;32.18
55486;BME280;71262;-25.924;28.194;2023-08-07T05:22:04;86074.67;;;18.19;32.24
55486;BME280;71262;-25.924;28.194;2023-08-07T05:24:29;86074.20;;;18.31;32.11
55486;BME280;71262;-25.924;28.194;2023-08-07T05:26:54;86074.67;;;18.26;32.22
55486;BME280;71262;-25.924;28.194;2023-08-07T05:29:19;86075.42;;;18.10;32.16
55486;BME280;71262;-25.924;28.194;2023-08-07T05:31:45;86075.60;;;18.32;31.88
55486;BME280;71262;-25.924;28.194;2023-08-07T05:34:10;86077.71;;;18.08;31.85
55486;BME280;71262;-25.924;28.194;2023-08-07T05:36:35;86079.39;;;18.73;31.63
55486;BME280;71262;-25.924;28.194;2023-08-07T05:39:00;86077.51;;;18.48;31.36
55486;BME280;71262;-25.924;28.194;2023-08-07T05:41:26;86077.65;;;18.79;31.03
55486;BME280;71262;-25.924;28.194;2023-08-07T05:43:51;86077.61;;;19.07;30.73
55486;BME280;71262;-25.924;28.194;2023-08-07T05:46:16;86081.67;;;18.94;30.43
55486;BME280;71262;-25.924;28.194;2023-08-07T05:48:42;86079.22;;;19.14;30.24
55486;BME280;71262;-25.924;28.194;2023-08-07T05:51:07;86079.31;;;19.33;30.03
55486;BME280;71262;-25.924;28.194;2023-08-07T05:53:32;86077.33;;;19.36;29.97
55486;BME280;71262;-25.924;28.194;2023-08-07T05:55:57;86076.33;;;19.60;29.79
55486;BME280;71262;-25.924;28.194;2023-08-07T05:58:22;86075.84;;;19.50;29.92
55486;BME280;71262;-25.924;28.194;2023-08-07T06:00:48;86079.85;;;19.43;29.84
55486;BME280;71262;-25.924;28.194;2023-08-07T06:03:13;86076.92;;;19.50;29.76
55486;BME280;71262;-25.924;28.194;2023-08-07T06:05:38;86079.94;;;19.37;29.71
55486;BME280;71262;-25.924;28.194;2023-08-07T06:08:03;86080.15;;;19.45;29.53
55486;BME280;71262;-25.924;28.194;2023-08-07T06:10:28;86082.96;;;19.58;29.41
55486;BME280;71262;-25.924;28.194;2023-08-07T06:12:54;86085.51;;;19.68;29.35
55486;BME280;71262;-25.924;28.194;2023-08-07T06:15:20;86084.04;;;19.85;29.20
55486;BME280;71262;-25.924;28.194;2023-08-07T06:17:44;86086.92;;;20.12;29.08
55486;BME280;71262;-25.924;28.194;2023-08-07T06:20:10;86086.80;;;19.92;29.21
55486;BME280;71262;-25.924;28.194;2023-08-07T06:22:36;86088.51;;;19.92;29.10
55486;BME280;71262;-25.924;28.194;2023-08-07T06:25:00;86089.29;;;19.96;29.09
55486;BME280;71262;-25.924;28.194;2023-08-07T06:27:25;86089.25;;;20.14;28.91
55486;BME280;71262;-25.924;28.194;2023-08-07T06:29:50;86090.34;;;20.21;28.94
55486;BME280;71262;-25.924;28.194;2023-08-07T06:32:15;86092.64;;;20.24;28.86
55486;BME280;71262;-25.924;28.194;2023-08-07T06:34:41;86095.00;;;20.07;28.75
55486;BME280;71262;-25.924;28.194;2023-08-07T06:37:06;86095.30;;;20.39;28.74
55486;BME280;71262;-25.924;28.194;2023-08-07T06:39:31;86097.23;;;20.46;28.72
55486;BME280;71262;-25.924;28.194;2023-08-07T06:41:56;86103.89;;;20.51;28.67
55486;BME280;71262;-25.924;28.194;2023-08-07T06:44:21;86102.61;;;20.31;28.64
55486;BME280;71262;-25.924;28.194;2023-08-07T06:46:46;86105.32;;;20.30;28.62
55486;BME280;71262;-25.924;28.194;2023-08-07T06:49:13;86106.19;;;20.68;28.50
55486;BME280;71262;-25.924;28.194;2023-08-07T06:51:38;86106.39;;;20.69;28.46
55486;BME280;71262;-25.924;28.194;2023-08-07T06:54:02;86108.15;;;20.07;28.63
55486;BME280;71262;-25.924;28.194;2023-08-07T06:56:27;86108.99;;;20.23;28.72
55486;BME280;71262;-25.924;28.194;2023-08-07T06:58:52;86107.24;;;20.57;28.70
55486;BME280;71262;-25.924;28.194;2023-08-07T07:01:17;86109.41;;;20.85;28.56
55486;BME280;71262;-25.924;28.194;2023-08-07T07:03:43;86106.69;;;20.41;28.63
55486;BME280;71262;-25.924;28.194;2023-08-07T07:06:09;86108.51;;;20.82;28.59
55486;BME280;71262;-25.924;28.194;2023-08-07T07:08:34;86105.59;;;20.47;28.69
55486;BME280;71262;-25.924;28.194;2023-08-07T07:11:01;86101.75;;;20.65;28.47
55486;BME280;71262;-25.924;28.194;2023-08-07T07:13:25;86103.41;;;20.62;28.57
55486;BME280;71262;-25.924;28.194;2023-08-07T07:15:55;86105.28;;;20.68;28.50
55486;BME280;71262;-25.924;28.194;2023-08-07T07:18:15;86103.13;;;21.01;28.51
55486;BME280;71262;-25.924;28.194;2023-08-07T07:20:41;86106.57;;;21.01;28.40
55486;BME280;71262;-25.924;28.194;2023-08-07T07:23:06;86107.97;;;20.78;28.40
55486;BME280;71262;-25.924;28.194;2023-08-07T07:25:32;86107.85;;;20.72;28.55
55486;BME280;71262;-25.924;28.194;2023-08-07T07:27:57;86109.16;;;20.64;28.67
55486;BME280;71262;-25.924;28.194;2023-08-07T07:30:23;86109.34;;;20.77;28.56
55486;BME280;71262;-25.924;28.194;2023-08-07T07:32:49;86103.17;;;20.85;28.42
55486;BME280;71262;-25.924;28.194;2023-08-07T07:35:15;86101.17;;;20.96;28.37
55486;BME280;71262;-25.924;28.194;2023-08-07T07:37:39;86101.89;;;20.94;28.34
55486;BME280;71262;-25.924;28.194;2023-08-07T07:40:06;86102.58;;;21.04;28.14
55486;BME280;71262;-25.924;28.194;2023-08-07T07:42:30;86102.39;;;20.98;28.38
55486;BME280;71262;-25.924;28.194;2023-08-07T07:44:56;86104.20;;;21.10;28.11
55486;BME280;71262;-25.924;28.194;2023-08-07T07:47:23;86102.88;;;21.09;28.29
55486;BME280;71262;-25.924;28.194;2023-08-07T07:50:03;86104.79;;;21.14;28.13
55486;BME280;71262;-25.924;28.194;2023-08-07T07:52:12;86100.28;;;21.13;28.05
55486;BME280;71262;-25.924;28.194;2023-08-07T07:54:37;86101.28;;;21.13;28.15
55486;BME280;71262;-25.924;28.194;2023-08-07T07:57:02;86098.63;;;20.84;28.29
55486;BME280;71262;-25.924;28.194;2023-08-07T07:59:28;86099.57;;;20.95;28.21
55486;BME280;71262;-25.924;28.194;2023-08-07T08:01:54;86102.20;;;21.21;28.14
55486;BME280;71262;-25.924;28.194;2023-08-07T08:04:19;86099.79;;;21.05;28.27
55486;BME280;71262;-25.924;28.194;2023-08-07T08:06:45;86098.69;;;21.03;28.65
55486;BME280;71262;-25.924;28.194;2023-08-07T08:09:10;86096.43;;;21.11;28.93
55486;BME280;71262;-25.924;28.194;2023-08-07T08:11:38;86093.26;;;21.04;29.50
55486;BME280;71262;-25.924;28.194;2023-08-07T08:13:59;86093.61;;;21.37;30.08
55486;BME280;71262;-25.924;28.194;2023-08-07T08:16:25;86090.70;;;21.38;30.66
55486;BME280;71262;-25.924;28.194;2023-08-07T08:18:50;86090.15;;;21.36;30.34
55486;BME280;71262;-25.924;28.194;2023-08-07T08:21:15;86089.09;;;21.44;30.83
55486;BME280;71262;-25.924;28.194;2023-08-07T08:23:40;86084.22;;;21.49;30.61
55486;BME280;71262;-25.924;28.194;2023-08-07T08:26:05;86082.68;;;21.36;31.43
55486;BME280;71262;-25.924;28.194;2023-08-07T08:28:30;86079.80;;;21.21;30.58
55486;BME280;71262;-25.924;28.194;2023-08-07T08:30:55;86075.16;;;21.16;30.71
55486;BME280;71262;-25.924;28.194;2023-08-07T08:33:21;86076.89;;;21.39;30.63
55486;BME280;71262;-25.924;28.194;2023-08-07T08:35:46;86075.94;;;21.47;30.54
55486;BME280;71262;-25.924;28.194;2023-08-07T08:38:10;86076.95;;;21.45;30.68
55486;BME280;71262;-25.924;28.194;2023-08-07T08:40:35;86071.40;;;21.22;30.50
55486;BME280;71262;-25.924;28.194;2023-08-07T08:43:01;86069.82;;;21.48;30.28
55486;BME280;71262;-25.924;28.194;2023-08-07T08:45:26;86069.61;;;21.56;30.14
55486;BME280;71262;-25.924;28.194;2023-08-07T08:47:52;86063.39;;;21.38;30.03
55486;BME280;71262;-25.924;28.194;2023-08-07T08:50:16;86063.41;;;21.62;29.98
55486;BME280;71262;-25.924;28.194;2023-08-07T08:52:45;86057.98;;;21.69;29.84
55486;BME280;71262;-25.924;28.194;2023-08-07T08:55:07;86054.38;;;21.63;29.81
55486;BME280;71262;-25.924;28.194;2023-08-07T08:57:33;86052.62;;;21.66;29.68
55486;BME280;71262;-25.924;28.194;2023-08-07T08:59:57;86048.18;;;21.61;29.69
55486;BME280;71262;-25.924;28.194;2023-08-07T09:02:21;86045.48;;;21.58;29.59
55486;BME280;71262;-25.924;28.194;2023-08-07T09:04:47;86037.85;;;21.28;29.62
55486;BME280;71262;-25.924;28.194;2023-08-07T09:07:13;86033.09;;;21.54;29.48
55486;BME280;71262;-25.924;28.194;2023-08-07T09:09:37;86026.80;;;21.26;29.51
55486;BME280;71262;-25.924;28.194;2023-08-07T09:12:03;86024.92;;;21.51;29.40
55486;BME280;71262;-25.924;28.194;2023-08-07T09:14:29;86025.47;;;21.64;29.25
55486;BME280;71262;-25.924;28.194;2023-08-07T09:16:55;86022.62;;;21.56;29.25
55486;BME280;71262;-25.924;28.194;2023-08-07T09:19:17;86018.52;;;21.57;29.26
55486;BME280;71262;-25.924;28.194;2023-08-07T09:21:42;86013.86;;;21.56;29.27
55486;BME280;71262;-25.924;28.194;2023-08-07T09:24:07;86009.02;;;21.33;29.23
55486;BME280;71262;-25.924;28.194;2023-08-07T09:26:34;86005.64;;;21.66;28.93
55486;BME280;71262;-25.924;28.194;2023-08-07T09:28:59;85999.10;;;21.58;28.61
55486;BME280;71262;-25.924;28.194;2023-08-07T09:31:24;85998.45;;;21.52;28.83
55486;BME280;71262;-25.924;28.194;2023-08-07T09:33:48;85998.03;;;21.50;28.55
55486;BME280;71262;-25.924;28.194;2023-08-07T09:36:14;85997.11;;;21.49;28.49
55486;BME280;71262;-25.924;28.194;2023-08-07T09:38:38;85995.68;;;21.25;28.34
55486;BME280;71262;-25.924;28.194;2023-08-07T09:41:04;85993.79;;;21.59;28.42
55486;BME280;71262;-25.924;28.194;2023-08-07T09:43:29;85989.94;;;21.61;28.72
55486;BME280;71262;-25.924;28.194;2023-08-07T09:45:53;85989.53;;;21.39;29.51
55486;BME280;71262;-25.924;28.194;2023-08-07T09:48:24;85985.07;;;21.41;29.82
55486;BME280;71262;-25.924;28.194;2023-08-07T09:50:46;85977.90;;;21.41;30.38
55486;BME280;71262;-25.924;28.194;2023-08-07T09:53:10;85971.87;;;21.55;31.00
55486;BME280;71262;-25.924;28.194;2023-08-07T09:55:34;85960.52;;;21.18;31.91
55486;BME280;71262;-25.924;28.194;2023-08-07T09:58:01;85958.89;;;21.34;32.39
55486;BME280;71262;-25.924;28.194;2023-08-07T10:00:25;85954.02;;;21.32;32.38
55486;BME280;71262;-25.924;28.194;2023-08-07T10:02:49;85951.28;;;21.01;33.74
55486;BME280;71262;-25.924;28.194;2023-08-07T10:05:16;85946.01;;;21.05;34.63
55486;BME280;71262;-25.924;28.194;2023-08-07T10:07:41;85942.30;;;21.24;34.26
55486;BME280;71262;-25.924;28.194;2023-08-07T10:10:06;85935.55;;;21.17;34.09
55486;BME280;71262;-25.924;28.194;2023-08-07T10:12:30;85930.19;;;21.14;33.97
55486;BME280;71262;-25.924;28.194;2023-08-07T10:14:55;85928.30;;;21.20;33.95
55486;BME280;71262;-25.924;28.194;2023-08-07T10:17:22;85921.79;;;20.97;33.81
55486;BME280;71262;-25.924;28.194;2023-08-07T10:19:46;85915.08;;;21.20;33.69
55486;BME280;71262;-25.924;28.194;2023-08-07T10:22:16;85912.69;;;21.19;33.44
55486;BME280;71262;-25.924;28.194;2023-08-07T10:24:38;85907.13;;;20.98;33.22
55486;BME280;71262;-25.924;28.194;2023-08-07T10:27:05;85904.39;;;20.97;32.95
55486;BME280;71262;-25.924;28.194;2023-08-07T10:29:28;85902.02;;;21.03;32.72
55486;BME280;71262;-25.924;28.194;2023-08-07T10:31:53;85898.82;;;21.09;32.34
55486;BME280;71262;-25.924;28.194;2023-08-07T10:34:17;85892.31;;;20.97;32.04
55486;BME280;71262;-25.924;28.194;2023-08-07T10:36:42;85888.00;;;21.05;31.63
55486;BME280;71262;-25.924;28.194;2023-08-07T10:39:09;85883.01;;;20.94;31.70
55486;BME280;71262;-25.924;28.194;2023-08-07T10:41:38;85878.38;;;21.01;31.49
55486;BME280;71262;-25.924;28.194;2023-08-07T10:43:58;85874.01;;;20.96;31.11
55486;BME280;71262;-25.924;28.194;2023-08-07T10:46:23;85871.30;;;20.81;31.10
55486;BME280;71262;-25.924;28.194;2023-08-07T10:48:54;85871.96;;;20.87;30.74
55486;BME280;71262;-25.924;28.194;2023-08-07T10:51:22;85868.76;;;20.98;30.70
55486;BME280;71262;-25.924;28.194;2023-08-07T10:53:41;85867.15;;;20.94;30.31
55486;BME280;71262;-25.924;28.194;2023-08-07T10:56:04;85863.85;;;20.88;30.00
55486;BME280;71262;-25.924;28.194;2023-08-07T10:58:32;85861.01;;;20.85;29.80
55486;BME280;71262;-25.924;28.194;2023-08-07T11:03:26;85855.53;;;20.71;29.37
55486;BME280;71262;-25.924;28.194;2023-08-07T11:05:43;85854.46;;;20.96;29.15
55486;BME280;71262;-25.924;28.194;2023-08-07T11:08:09;85852.56;;;21.26;28.97
55486;BME280;71262;-25.924;28.194;2023-08-07T11:10:34;85849.58;;;20.71;28.86
55486;BME280;71262;-25.924;28.194;2023-08-07T11:12:59;85848.18;;;20.66;28.78
55486;BME280;71262;-25.924;28.194;2023-08-07T11:15:26;85845.12;;;20.89;28.62
55486;BME280;71262;-25.924;28.194;2023-08-07T11:17:50;85837.79;;;20.72;28.34
55486;BME280;71262;-25.924;28.194;2023-08-07T11:20:14;85837.65;;;20.66;28.07
55486;BME280;71262;-25.924;28.194;2023-08-07T11:22:41;85838.94;;;20.85;27.92
55486;BME280;71262;-25.924;28.194;2023-08-07T11:25:05;85838.91;;;20.52;27.84
55486;BME280;71262;-25.924;28.194;2023-08-07T11:27:31;85833.70;;;20.77;27.63
55486;BME280;71262;-25.924;28.194;2023-08-07T11:29:54;85831.57;;;20.77;27.36
55486;BME280;71262;-25.924;28.194;2023-08-07T11:32:21;85828.53;;;20.79;27.18
55486;BME280;71262;-25.924;28.194;2023-08-07T11:34:49;85823.54;;;20.71;26.97
55486;BME280;71262;-25.924;28.194;2023-08-07T11:37:15;85820.20;;;20.51;26.75
55486;BME280;71262;-25.924;28.194;2023-08-07T11:39:41;85820.44;;;20.75;26.63
55486;BME280;71262;-25.924;28.194;2023-08-07T11:42:01;85819.42;;;20.72;26.42
55486;BME280;71262;-25.924;28.194;2023-08-07T11:44:25;85816.59;;;20.51;26.28
55486;BME280;71262;-25.924;28.194;2023-08-07T11:46:52;85819.09;;;20.67;26.19
55486;BME280;71262;-25.924;28.194;2023-08-07T11:49:15;85818.49;;;20.65;26.06
55486;BME280;71262;-25.924;28.194;2023-08-07T11:51:40;85814.01;;;20.80;26.02
55486;BME280;71262;-25.924;28.194;2023-08-07T11:54:05;85811.55;;;20.62;25.82
55486;BME280;71262;-25.924;28.194;2023-08-07T11:56:31;85806.88;;;20.44;25.63
55486;BME280;71262;-25.924;28.194;2023-08-07T11:58:57;85806.00;;;20.58;25.55
55486;BME280;71262;-25.924;28.194;2023-08-07T12:01:22;85802.57;;;20.91;25.40
55486;BME280;71262;-25.924;28.194;2023-08-07T12:03:53;85803.09;;;20.58;25.37
55486;BME280;71262;-25.924;28.194;2023-08-07T12:06:12;85804.87;;;20.47;25.36
55486;BME280;71262;-25.924;28.194;2023-08-07T12:08:38;85800.42;;;20.36;25.35
55486;BME280;71262;-25.924;28.194;2023-08-07T12:11:03;85797.34;;;20.43;25.10
55486;BME280;71262;-25.924;28.194;2023-08-07T12:13:27;85796.78;;;20.26;25.14
55486;BME280;71262;-25.924;28.194;2023-08-07T12:15:54;85796.36;;;20.49;25.09
55486;BME280;71262;-25.924;28.194;2023-08-07T12:18:19;85798.61;;;20.47;25.01
55486;BME280;71262;-25.924;28.194;2023-08-07T12:20:42;85791.85;;;20.42;24.87
55486;BME280;71262;-25.924;28.194;2023-08-07T12:23:14;85785.63;;;20.49;24.77
55486;BME280;71262;-25.924;28.194;2023-08-07T12:25:36;85783.77;;;20.18;24.73
55486;BME280;71262;-25.924;28.194;2023-08-07T12:27:57;85782.62;;;20.45;24.65
55486;BME280;71262;-25.924;28.194;2023-08-07T12:30:23;85779.95;;;20.07;24.67
55486;BME280;71262;-25.924;28.194;2023-08-07T12:32:48;85775.96;;;20.10;24.53